Terminal Aerodrome Forecast
Issued by NWS Sioux Falls, SD

Home | Current Version | Previous Version | Text Only | Print | Product List | Glossary Off
Versions: 1 2 3 4 5 6 7 8 9 10 11 12 13 14 15 16 17 18 19 20 21 22 23 24

000
FTUS43 KFSD 301140
TAFHON
TAF
KHON 301140Z 3012/3112 34009KT P6SM OVC015
      TEMPO 3012/3014 OVC009
     FM301630 VRB04KT P6SM SCT025
     FM302000 14008KT P6SM SCT040
     FM310100 13012KT P6SM SCT060
     FM310500 15013G19KT P6SM SCT005 BKN100=

USA.gov is the U.S. government's official web portal to all federal, state and local government web resources and services.